createdAt,value
2018-06-16T00:00:14.302Z,101678.85
2018-06-16T00:02:43.266Z,101680.15
2018-06-16T00:05:11.675Z,101679.27
2018-06-16T00:07:40.051Z,101679.72
2018-06-16T00:10:08.458Z,101680.16
2018-06-16T00:12:36.875Z,101674.89
2018-06-16T00:15:05.315Z,101674.47
2018-06-16T00:17:33.702Z,101675.36
2018-06-16T00:20:02.115Z,101679.28
2018-06-16T00:22:30.492Z,101670.54
2018-06-16T00:25:00.858Z,101672.28
2018-06-16T00:27:30.236Z,101673.14
2018-06-16T00:29:58.700Z,101670.55
2018-06-16T00:32:27.194Z,101671.40
2018-06-16T00:34:55.670Z,101673.17
2018-06-16T00:37:24.474Z,101670.52
2018-06-16T00:39:53.053Z,101669.65
2018-06-16T00:42:21.466Z,101668.77
2018-06-16T00:44:49.882Z,101660.03
2018-06-16T00:47:18.467Z,101660.05
2018-06-16T00:49:46.861Z,101664.00
2018-06-16T00:52:15.238Z,101661.39
2018-06-16T00:54:43.632Z,101662.70
2018-06-16T00:57:23.386Z,101668.38
2018-06-16T00:59:51.806Z,101664.88
2018-06-16T01:02:20.186Z,101657.44
2018-06-16T01:04:48.614Z,101657.44
2018-06-16T01:07:16.998Z,101657.88
2018-06-16T01:09:45.635Z,101657.00
2018-06-16T01:12:14.166Z,101653.94
2018-06-16T01:14:42.562Z,101654.37
2018-06-16T01:17:10.982Z,101660.06
2018-06-16T01:19:39.362Z,101659.19
2018-06-16T01:22:07.787Z,101658.31
2018-06-16T01:24:36.160Z,101661.38
2018-06-16T01:27:04.711Z,101663.13
2018-06-16T01:29:33.110Z,101667.52
2018-06-16T01:32:01.849Z,101662.70
2018-06-16T01:34:30.406Z,101661.39
2018-06-16T01:36:58.913Z,101658.77
2018-06-16T01:39:27.291Z,101663.13
2018-06-16T01:41:55.727Z,101661.83
2018-06-16T01:44:24.106Z,101661.83
2018-06-16T01:46:52.509Z,101662.67
2018-06-16T01:49:20.886Z,101656.13
2018-06-16T01:51:49.290Z,101652.18
2018-06-16T01:54:17.666Z,101657.01
2018-06-16T01:56:46.354Z,101656.56
2018-06-16T01:59:14.730Z,101650.87
2018-06-16T02:01:43.417Z,101652.18
2018-06-16T02:04:12.084Z,101650.44
2018-06-16T02:06:40.998Z,101646.52
2018-06-16T02:09:11.090Z,101649.56
2018-06-16T02:11:39.694Z,101649.98
2018-06-16T02:14:08.783Z,101650.41
2018-06-16T02:16:37.178Z,101652.16
2018-06-16T02:19:05.551Z,101650.87
2018-06-16T02:21:33.963Z,101647.78
2018-06-16T02:24:02.334Z,101642.98
2018-06-16T02:26:30.743Z,101644.30
2018-06-16T02:28:59.118Z,101640.79
2018-06-16T02:31:27.543Z,101642.55
2018-06-16T02:33:55.891Z,101648.22
2018-06-16T02:36:24.386Z,101646.48
2018-06-16T02:38:52.810Z,101648.67
2018-06-16T02:41:21.199Z,101644.71
2018-06-16T02:43:49.599Z,101649.09
2018-06-16T02:46:17.975Z,101647.77
2018-06-16T02:48:46.378Z,101647.28
2018-06-16T02:51:14.759Z,101656.44
2018-06-16T02:53:43.159Z,101657.69
2018-06-16T02:56:11.535Z,101661.13
2018-06-16T02:58:39.943Z,101668.06
2018-06-16T03:01:08.315Z,101665.39
2018-06-16T03:03:36.714Z,101664.95
2018-06-16T03:06:05.100Z,101664.48
2018-06-16T03:08:33.519Z,101667.97
2018-06-16T03:11:01.890Z,101668.86
2018-06-16T03:13:30.318Z,101669.70
2018-06-16T03:15:58.699Z,101671.03
2018-06-16T03:18:27.114Z,101668.88
2018-06-16T03:20:55.571Z,101672.80
2018-06-16T03:23:24.006Z,101670.64
2018-06-16T03:25:52.370Z,101670.63
2018-06-16T03:28:20.777Z,101671.08
2018-06-16T03:30:49.160Z,101671.13
2018-06-16T03:33:17.566Z,101666.78
2018-06-16T03:35:45.939Z,101669.84
2018-06-16T03:38:14.329Z,101663.73
2018-06-16T03:40:42.702Z,101665.05
2018-06-16T03:43:11.114Z,101665.06
2018-06-16T03:45:39.726Z,101662.48
2018-06-16T03:48:08.143Z,101667.76
2018-06-16T03:50:36.510Z,101663.39
2018-06-16T03:53:05.028Z,101667.37
2018-06-16T03:55:33.403Z,101665.65
2018-06-16T03:58:01.782Z,101661.33
2018-06-16T04:00:30.199Z,101659.62
2018-06-16T04:02:58.566Z,101664.00
2018-06-16T04:05:27.094Z,101661.36
2018-06-16T04:07:55.471Z,101661.33
2018-06-16T04:10:23.873Z,101660.82
2018-06-16T04:12:52.266Z,101660.75
2018-06-16T04:15:20.668Z,101665.47
2018-06-16T04:17:49.033Z,101662.33
2018-06-16T04:20:17.438Z,101662.73
2018-06-16T04:22:45.826Z,101657.39
2018-06-16T04:25:14.226Z,101661.67
2018-06-16T04:27:42.610Z,101666.41
2018-06-16T04:30:11.144Z,101664.16
2018-06-16T04:32:39.565Z,101663.61
2018-06-16T04:35:07.983Z,101659.21
2018-06-16T04:37:36.363Z,101660.42
2018-06-16T04:40:04.786Z,101665.58
2018-06-16T04:42:33.159Z,101661.95
2018-06-16T04:45:01.564Z,101662.28
2018-06-16T04:47:29.944Z,101659.52
2018-06-16T04:49:58.345Z,101660.74
2018-06-16T04:52:26.767Z,101665.05
2018-06-16T04:54:55.167Z,101662.83
2018-06-16T04:57:23.553Z,101661.05
2018-06-16T04:59:51.941Z,101660.50
2018-06-16T05:02:20.313Z,101662.62
2018-06-16T05:04:48.726Z,101663.44
2018-06-16T05:07:17.130Z,101653.70
2018-06-16T05:09:45.605Z,101652.27
2018-06-16T05:12:14.126Z,101645.50
2018-06-16T05:14:42.558Z,101643.11
2018-06-16T05:17:10.955Z,101645.17
2018-06-16T05:19:39.478Z,101634.98
2018-06-16T05:22:07.881Z,101638.05
2018-06-16T05:24:36.332Z,101631.03
2018-06-16T05:27:04.738Z,101633.67
2018-06-16T05:29:33.351Z,101631.03
2018-06-16T05:32:01.751Z,101630.17
2018-06-16T05:34:30.126Z,101623.17
2018-06-16T05:36:58.618Z,101621.41
2018-06-16T05:39:26.998Z,101622.43
2018-06-16T05:41:55.398Z,101622.97
2018-06-16T05:44:23.775Z,101623.13
2018-06-16T05:46:52.178Z,101616.20
2018-06-16T05:49:20.594Z,101629.49
2018-06-16T05:51:49.018Z,101624.28
2018-06-16T05:54:17.395Z,101620.38
2018-06-16T05:56:45.798Z,101624.39
2018-06-16T05:59:14.187Z,101617.39
2018-06-16T06:01:42.663Z,101624.90
2018-06-16T06:04:11.046Z,101623.99
2018-06-16T06:06:39.459Z,101627.06
2018-06-16T06:09:09.202Z,101623.48
2018-06-16T06:11:37.633Z,101624.73
2018-06-16T06:14:06.980Z,101628.17
2018-06-16T06:16:35.385Z,101630.71
2018-06-16T06:19:03.758Z,101633.23
2018-06-16T06:21:32.187Z,101629.91
2018-06-16T06:24:00.602Z,101632.30
2018-06-16T06:26:29.002Z,101632.98
2018-06-16T06:28:57.379Z,101632.75
2018-06-16T06:31:25.814Z,101627.70
2018-06-16T06:33:54.200Z,101631.45
2018-06-16T06:36:22.604Z,101631.18
2018-06-16T06:38:51.091Z,101625.73
2018-06-16T06:41:19.670Z,101617.13
2018-06-16T06:43:48.070Z,101619.47
2018-06-16T06:46:16.442Z,101617.44
2018-06-16T06:48:44.846Z,101619.81
2018-06-16T06:51:13.233Z,101623.92
2018-06-16T06:53:41.638Z,101625.43
2018-06-16T06:56:10.155Z,101629.58
2018-06-16T06:58:38.659Z,101623.35
2018-06-16T07:01:07.038Z,101629.36
2018-06-16T07:03:35.439Z,101628.26
2018-06-16T07:06:03.819Z,101627.13
2018-06-16T07:08:32.223Z,101627.38
2018-06-16T07:11:00.603Z,101629.37
2018-06-16T07:13:29.245Z,101626.50
2018-06-16T07:15:57.625Z,101630.22
2018-06-16T07:18:26.031Z,101628.30
2018-06-16T07:20:54.942Z,101628.47
2018-06-16T07:23:23.462Z,101629.98
2018-06-16T07:25:51.853Z,101623.61
2018-06-16T07:28:20.406Z,101623.00
2018-06-16T07:30:48.901Z,101621.89
2018-06-16T07:33:17.307Z,101620.31
2018-06-16T07:35:45.726Z,101613.00
2018-06-16T07:38:14.147Z,101614.62
2018-06-16T07:40:42.518Z,101615.39
2018-06-16T07:43:10.959Z,101615.70
2018-06-16T07:45:39.341Z,101613.28
2018-06-16T07:48:07.798Z,101609.53
2018-06-16T07:50:36.178Z,101610.27
2018-06-16T07:53:04.587Z,101607.44
2018-06-16T07:55:33.130Z,101602.40
2018-06-16T07:58:01.535Z,101603.02
2018-06-16T08:00:29.931Z,101600.16
2018-06-16T08:02:58.691Z,101598.19
2018-06-16T08:05:27.074Z,101597.11
2018-06-16T08:07:55.451Z,101599.63
2018-06-16T08:10:24.010Z,101592.84
2018-06-16T08:12:52.574Z,101598.37
2018-06-16T08:15:20.941Z,101593.19
2018-06-16T08:17:49.313Z,101597.42
2018-06-16T08:20:17.834Z,101592.43
2018-06-16T08:22:46.482Z,101592.56
2018-06-16T08:25:14.882Z,101584.25
2018-06-16T08:27:43.254Z,101593.98
2018-06-16T08:30:11.662Z,101589.13
2018-06-16T08:32:40.055Z,101592.61
2018-06-16T08:35:08.469Z,101592.38
2018-06-16T08:37:36.867Z,101593.37
2018-06-16T08:40:05.363Z,101583.89
2018-06-16T08:42:33.798Z,101587.90
2018-06-16T08:45:02.203Z,101589.41
2018-06-16T08:47:30.574Z,101590.91
2018-06-16T08:49:58.979Z,101582.70
2018-06-16T08:52:27.353Z,101584.20
2018-06-16T08:54:55.962Z,101588.38
2018-06-16T08:57:24.333Z,101584.97
2018-06-16T08:59:52.808Z,101582.63
2018-06-16T09:02:21.183Z,101557.19
2018-06-16T09:04:49.586Z,101576.15
2018-06-16T09:07:17.971Z,101583.51
2018-06-16T09:09:46.454Z,101573.93
2018-06-16T09:12:14.907Z,101575.83
2018-06-16T09:14:43.401Z,101574.23
2018-06-16T09:17:11.843Z,101570.94
2018-06-16T09:19:40.246Z,101571.54
2018-06-16T09:22:08.623Z,101575.23
2018-06-16T09:24:37.018Z,101577.55
2018-06-16T09:27:05.762Z,101579.18
2018-06-16T09:29:34.139Z,101577.25
2018-06-16T09:32:02.538Z,101578.70
2018-06-16T09:34:30.921Z,101581.80
2018-06-16T09:36:59.318Z,101579.14
2018-06-16T09:39:27.690Z,101578.57
2018-06-16T09:41:56.090Z,101578.91
2018-06-16T09:44:24.466Z,101577.45
2018-06-16T09:46:52.874Z,101576.41
2018-06-16T09:49:21.517Z,101573.75
2018-06-16T09:51:50.080Z,101573.75
2018-06-16T09:54:18.451Z,101573.69
2018-06-16T09:56:46.907Z,101570.61
2018-06-16T09:59:15.288Z,101564.53
2018-06-16T10:01:43.686Z,101558.41
2018-06-16T10:04:12.078Z,101556.63
2018-06-16T10:06:40.499Z,101558.30
2018-06-16T10:09:09.571Z,101559.64
2018-06-16T10:11:37.974Z,101561.19
2018-06-16T10:14:06.434Z,101557.09
2018-06-16T10:16:34.830Z,101555.64
2018-06-16T10:19:03.210Z,101549.64
2018-06-16T10:21:31.623Z,101551.93
2018-06-16T10:23:59.990Z,101553.65
2018-06-16T10:26:28.386Z,101547.78
2018-06-16T10:28:56.813Z,101546.39
2018-06-16T10:31:25.177Z,101548.37
2018-06-16T10:33:53.647Z,101545.56
2018-06-16T10:36:22.086Z,101558.69
2018-06-16T10:38:50.442Z,101551.87
2018-06-16T10:41:18.858Z,101548.61
2018-06-16T10:43:47.235Z,101552.52
2018-06-16T10:46:15.610Z,101547.45
2018-06-16T10:48:44.020Z,101541.09
2018-06-16T10:51:12.395Z,101539.43
2018-06-16T10:53:40.797Z,101540.23
2018-06-16T10:56:09.170Z,101541.80
2018-06-16T10:58:37.598Z,101533.41
2018-06-16T11:01:06.028Z,101535.31
2018-06-16T11:03:34.426Z,101532.72
2018-06-16T11:06:02.811Z,101531.90
2018-06-16T11:08:31.215Z,101525.77
2018-06-16T11:10:59.595Z,101525.55
2018-06-16T11:13:28.027Z,101518.16
2018-06-16T11:15:56.470Z,101520.61
2018-06-16T11:18:24.861Z,101520.22
2018-06-16T11:20:53.230Z,101524.10
2018-06-16T11:23:21.635Z,101514.36
2018-06-16T11:25:50.006Z,101515.80
2018-06-16T11:28:18.452Z,101516.19
2018-06-16T11:30:46.818Z,101502.56
2018-06-16T11:33:15.210Z,101508.19
2018-06-16T11:35:43.591Z,101496.73
2018-06-16T11:38:11.990Z,101499.48
2018-06-16T11:40:40.362Z,101495.46
2018-06-16T11:43:08.786Z,101493.34
2018-06-16T11:45:37.165Z,101485.14
2018-06-16T11:48:05.730Z,101478.31
2018-06-16T11:50:34.446Z,101472.96
2018-06-16T11:53:02.850Z,101474.98
2018-06-16T11:55:31.223Z,101465.55
2018-06-16T11:57:59.632Z,101465.24
2018-06-16T12:00:28.033Z,101457.22
2018-06-16T12:02:56.450Z,101454.55
2018-06-16T12:05:24.818Z,101454.06
2018-06-16T12:07:53.198Z,101448.66
2018-06-16T12:10:21.627Z,101446.58
2018-06-16T12:12:50.022Z,101444.59
2018-06-16T12:15:18.427Z,101443.44
2018-06-16T12:17:46.803Z,101454.70
2018-06-16T12:20:15.194Z,101449.30
2018-06-16T12:22:43.566Z,101446.69
2018-06-16T12:25:11.962Z,101447.08
2018-06-16T12:27:40.335Z,101438.44
2018-06-16T12:30:08.770Z,101436.55
2018-06-16T12:32:37.159Z,101434.41
2018-06-16T12:35:05.591Z,101432.70
2018-06-16T12:37:33.999Z,101432.22
2018-06-16T12:40:02.414Z,101425.86
2018-06-16T12:42:30.806Z,101422.86
2018-06-16T12:44:59.430Z,101426.95
2018-06-16T12:47:27.810Z,101423.56
2018-06-16T12:49:56.202Z,101412.20
2018-06-16T12:52:24.578Z,101416.76
2018-06-16T12:54:53.123Z,101406.21
2018-06-16T12:57:21.530Z,101403.30
2018-06-16T12:59:51.551Z,101397.85
2018-06-16T13:02:19.942Z,101397.30
2018-06-16T13:04:48.347Z,101393.80
2018-06-16T13:07:16.719Z,101393.06
2018-06-16T13:09:45.138Z,101398.52
2018-06-16T13:12:13.550Z,101391.05
2018-06-16T13:14:41.974Z,101394.66
2018-06-16T13:17:10.349Z,101393.55
2018-06-16T13:19:38.750Z,101386.69
2018-06-16T13:22:07.129Z,101389.61
2018-06-16T13:24:35.539Z,101393.17
2018-06-16T13:27:03.915Z,101390.80
2018-06-16T13:29:32.296Z,101383.65
2018-06-16T13:32:00.698Z,101393.17
2018-06-16T13:34:29.506Z,101387.55
2018-06-16T13:36:57.910Z,101382.94
2018-06-16T13:39:26.278Z,101388.23
2018-06-16T13:41:54.693Z,101383.42
2018-06-16T13:44:23.078Z,101379.78
2018-06-16T13:46:51.487Z,101376.48
2018-06-16T13:49:19.871Z,101381.88
2018-06-16T13:51:48.262Z,101372.59
2018-06-16T13:54:16.646Z,101372.17
2018-06-16T13:56:45.070Z,101371.16
2018-06-16T13:59:13.455Z,101372.78
2018-06-16T14:01:41.884Z,101372.44
2018-06-16T14:04:10.255Z,101371.69
2018-06-16T14:06:38.665Z,101372.62
2018-06-16T14:09:08.599Z,101372.69
2018-06-16T14:11:37.006Z,101366.41
2018-06-16T14:14:05.426Z,101374.73
2018-06-16T14:16:34.958Z,101369.88
2018-06-16T14:19:03.321Z,101368.05
2018-06-16T14:21:31.727Z,101371.44
2018-06-16T14:24:00.102Z,101372.97
2018-06-16T14:26:28.531Z,101364.39
2018-06-16T14:28:56.931Z,101364.17
2018-06-16T14:31:25.338Z,101360.03
2018-06-16T14:33:53.710Z,101360.25
2018-06-16T14:36:22.115Z,101364.51
2018-06-16T14:38:50.494Z,101364.38
2018-06-16T14:41:18.894Z,101359.45
2018-06-16T14:43:47.264Z,101363.89
2018-06-16T14:46:15.670Z,101362.01
2018-06-16T14:48:44.082Z,101354.64
2018-06-16T14:51:12.450Z,101358.27
2018-06-16T14:53:40.855Z,101361.39
2018-06-16T14:56:09.251Z,101354.95
2018-06-16T14:58:37.658Z,101347.23
2018-06-16T15:01:06.262Z,101340.31
2018-06-16T15:03:34.660Z,101341.16
2018-06-16T15:06:03.041Z,101339.17
2018-06-16T15:08:31.451Z,101334.54
2018-06-16T15:10:59.827Z,101337.89
2018-06-16T15:13:28.254Z,101331.31
2018-06-16T15:15:56.639Z,101326.89
2018-06-16T15:18:25.048Z,101330.60
2018-06-16T15:20:53.498Z,101320.08
2018-06-16T15:23:22.612Z,101323.86
2018-06-16T15:25:50.989Z,101325.17
2018-06-16T15:28:19.399Z,101325.66
2018-06-16T15:30:47.791Z,101320.94
2018-06-16T15:33:16.199Z,101320.19
2018-06-16T15:35:44.577Z,101314.84
2018-06-16T15:38:12.990Z,101312.92
2018-06-16T15:40:41.358Z,101315.04
2018-06-16T15:43:09.771Z,101308.97
2018-06-16T15:45:38.155Z,101306.66
2018-06-16T15:48:06.779Z,101301.37
2018-06-16T15:50:35.150Z,101301.25
2018-06-16T15:53:03.551Z,101293.39
2018-06-16T15:55:31.930Z,101296.38
2018-06-16T15:58:00.339Z,101295.52
2018-06-16T16:00:28.711Z,101297.41
2018-06-16T16:02:57.107Z,101292.44
2018-06-16T16:05:25.498Z,101296.45
2018-06-16T16:07:53.934Z,101295.29
2018-06-16T16:10:22.318Z,101288.00
2018-06-16T16:12:50.795Z,101291.45
2018-06-16T16:15:19.205Z,101291.63
2018-06-16T16:17:47.577Z,101285.20
2018-06-16T16:20:15.975Z,101284.12
2018-06-16T16:22:44.388Z,101282.96
2018-06-16T16:25:12.797Z,101278.72
2018-06-16T16:27:41.522Z,101274.59
2018-06-16T16:30:09.923Z,101273.91
2018-06-16T16:32:38.378Z,101271.48
2018-06-16T16:35:06.898Z,101273.73
2018-06-16T16:37:35.490Z,101274.59
2018-06-16T16:40:03.967Z,101274.59
2018-06-16T16:42:32.347Z,101270.89
2018-06-16T16:45:00.743Z,101268.33
2018-06-16T16:47:29.114Z,101271.24
2018-06-16T16:49:57.513Z,101271.55
2018-06-16T16:52:25.889Z,101271.87
2018-06-16T16:54:54.783Z,101277.69
2018-06-16T16:57:23.162Z,101272.77
2018-06-16T16:59:51.602Z,101277.48
2018-06-16T17:02:19.970Z,101273.58
2018-06-16T17:04:48.367Z,101282.53
2018-06-16T17:07:16.743Z,101277.25
2018-06-16T17:09:45.151Z,101287.39
2018-06-16T17:12:13.532Z,101286.89
2018-06-16T17:14:41.960Z,101284.23
2018-06-16T17:17:10.335Z,101283.83
2018-06-16T17:19:38.731Z,101281.30
2018-06-16T17:22:07.098Z,101278.63
2018-06-16T17:24:35.609Z,101278.84
2018-06-16T17:27:03.986Z,101276.66
2018-06-16T17:29:32.404Z,101281.16
2018-06-16T17:32:00.779Z,101276.84
2018-06-16T17:34:29.168Z,101274.80
2018-06-16T17:36:57.571Z,101276.36
2018-06-16T17:39:25.946Z,101274.83
2018-06-16T17:41:54.346Z,101274.28
2018-06-16T17:44:22.722Z,101271.89
2018-06-16T17:46:51.122Z,101271.19
2018-06-16T17:49:19.499Z,101271.88
2018-06-16T17:51:47.894Z,101277.03
2018-06-16T17:54:16.266Z,101273.30
2018-06-16T17:56:44.664Z,101270.79
2018-06-16T17:59:13.062Z,101260.87
2018-06-16T18:01:41.459Z,101262.86
2018-06-16T18:04:09.838Z,101259.16
2018-06-16T18:06:38.243Z,101263.75
2018-06-16T18:09:09.287Z,101263.51
2018-06-16T18:11:37.873Z,101263.66
2018-06-16T18:14:06.462Z,101258.13
2018-06-16T18:16:34.871Z,101267.20
2018-06-16T18:19:03.257Z,101260.80
2018-06-16T18:21:31.938Z,101262.01
2018-06-16T18:24:00.437Z,101255.31
2018-06-16T18:26:28.839Z,101257.31
2018-06-16T18:28:57.215Z,101259.84
2018-06-16T18:31:25.618Z,101259.62
2018-06-16T18:33:54.066Z,101258.95
2018-06-16T18:36:22.475Z,101268.93
2018-06-16T18:38:50.854Z,101260.72
2018-06-16T18:41:19.262Z,101263.13
2018-06-16T18:43:47.634Z,101267.84
2018-06-16T18:46:16.026Z,101264.50
2018-06-16T18:48:44.495Z,101264.70
2018-06-16T18:51:12.903Z,101261.78
2018-06-16T18:53:41.282Z,101265.95
2018-06-16T18:56:09.705Z,101265.28
2018-06-16T18:58:38.092Z,101265.13
2018-06-16T19:01:06.538Z,101262.27
2018-06-16T19:03:34.950Z,101263.74
2018-06-16T19:06:03.335Z,101265.30
2018-06-16T19:08:31.730Z,101259.83
2018-06-16T19:11:00.125Z,101260.22
2018-06-16T19:13:28.546Z,101259.19
2018-06-16T19:15:56.927Z,101259.50
2018-06-16T19:18:25.401Z,101265.11
2018-06-16T19:20:53.740Z,101260.87
2018-06-16T19:23:22.149Z,101265.11
2018-06-16T19:25:50.518Z,101258.29
2018-06-16T19:28:18.923Z,101261.16
2018-06-16T19:30:47.295Z,101261.37
2018-06-16T19:33:15.694Z,101259.81
2018-06-16T19:35:44.063Z,101258.27
2018-06-16T19:38:12.539Z,101259.33
2018-06-16T19:40:40.931Z,101260.39
2018-06-16T19:43:09.401Z,101254.84
2018-06-16T19:45:37.869Z,101258.56
2018-06-16T19:48:06.288Z,101261.03
2018-06-16T19:50:34.684Z,101250.69
2018-06-16T19:53:03.089Z,101257.16
2018-06-16T19:55:31.471Z,101252.48
2018-06-16T19:57:59.883Z,101258.88
2018-06-16T20:00:28.375Z,101260.00
2018-06-16T20:02:56.767Z,101270.80
2018-06-16T20:05:25.147Z,101268.83
2018-06-16T20:07:53.803Z,101273.06
2018-06-16T20:10:22.234Z,101272.00
2018-06-16T20:12:50.671Z,101275.33
2018-06-16T20:15:19.050Z,101273.86
2018-06-16T20:17:47.495Z,101271.92
2018-06-16T20:20:15.871Z,101275.17
2018-06-16T20:22:44.256Z,101273.59
2018-06-16T20:25:12.707Z,101268.90
2018-06-16T20:27:41.158Z,101265.06
2018-06-16T20:30:09.558Z,101265.66
2018-06-16T20:32:37.950Z,101270.63
2018-06-16T20:35:06.350Z,101267.25
2018-06-16T20:37:34.795Z,101266.53
2018-06-16T20:40:03.199Z,101270.60
2018-06-16T20:42:31.570Z,101268.12
2018-06-16T20:44:59.978Z,101266.49
2018-06-16T20:47:28.360Z,101272.31
2018-06-16T20:49:56.758Z,101272.91
2018-06-16T20:52:25.127Z,101272.73
2018-06-16T20:54:53.752Z,101279.94
2018-06-16T20:57:22.177Z,101278.73
2018-06-16T20:59:50.611Z,101281.97
2018-06-16T21:02:18.979Z,101281.29
2018-06-16T21:04:47.390Z,101284.55
2018-06-16T21:07:15.767Z,101275.01
2018-06-16T21:09:44.232Z,101279.12
2018-06-16T21:12:12.583Z,101282.41
2018-06-16T21:14:41.022Z,101281.66
2018-06-16T21:17:09.390Z,101285.31
2018-06-16T21:19:37.794Z,101281.92
2018-06-16T21:22:06.746Z,101278.03
2018-06-16T21:24:35.154Z,101287.00
2018-06-16T21:27:03.535Z,101281.73
2018-06-16T21:29:31.943Z,101283.17
2018-06-16T21:32:00.318Z,101280.21
2018-06-16T21:34:28.722Z,101273.70
2018-06-16T21:36:57.118Z,101278.73
2018-06-16T21:39:25.502Z,101270.10
2018-06-16T21:41:53.903Z,101268.91
2018-06-16T21:44:22.281Z,101269.02
2018-06-16T21:46:50.695Z,101269.09
2018-06-16T21:51:43.330Z,101271.92
2018-06-16T21:54:11.715Z,101265.94
2018-06-16T21:56:40.144Z,101267.84
2018-06-16T21:59:08.529Z,101259.16
2018-06-16T22:01:37.735Z,101264.55
2018-06-16T22:04:06.872Z,101259.88
2018-06-16T22:06:35.530Z,101261.76
2018-06-16T22:09:05.954Z,101258.36
2018-06-16T22:11:34.367Z,101263.38
2018-06-16T22:14:02.780Z,101260.85
2018-06-16T22:16:31.190Z,101256.14
2018-06-16T22:18:59.586Z,101252.80
2018-06-16T22:21:27.999Z,101254.66
2018-06-16T22:23:56.393Z,101250.37
2018-06-16T22:26:24.795Z,101247.35
2018-06-16T22:28:53.174Z,101241.70
2018-06-16T22:31:21.622Z,101244.44
2018-06-16T22:33:50.035Z,101241.41
2018-06-16T22:36:18.439Z,101241.04
2018-06-16T22:38:46.819Z,101239.77
2018-06-16T22:41:15.230Z,101235.44
2018-06-16T22:43:43.610Z,101232.86
2018-06-16T22:46:12.026Z,101240.34
2018-06-16T22:48:40.406Z,101238.25
2018-06-16T22:51:08.806Z,101235.27
2018-06-16T22:53:37.185Z,101240.56
2018-06-16T22:56:05.786Z,101235.35
2018-06-16T22:58:34.171Z,101232.30
2018-06-16T23:01:02.551Z,101234.94
2018-06-16T23:03:30.963Z,101234.55
2018-06-16T23:05:59.347Z,101239.02
2018-06-16T23:08:27.751Z,101232.50
2018-06-16T23:10:56.132Z,101230.33
2018-06-16T23:13:24.562Z,101228.18
2018-06-16T23:15:52.983Z,101225.66
2018-06-16T23:18:21.387Z,101230.63
2018-06-16T23:20:49.773Z,101235.58
2018-06-16T23:23:18.175Z,101231.34
2018-06-16T23:25:46.550Z,101228.80
2018-06-16T23:28:14.957Z,101234.17
2018-06-16T23:30:43.333Z,101232.88
2018-06-16T23:33:11.743Z,101232.94
2018-06-16T23:35:40.123Z,101229.09
2018-06-16T23:38:08.542Z,101226.08
2018-06-16T23:40:36.933Z,101223.98
2018-06-16T23:43:05.347Z,101228.84
2018-06-16T23:45:33.723Z,101227.58
2018-06-16T23:48:02.127Z,101229.80
2018-06-16T23:50:30.501Z,101225.41
2018-06-16T23:52:58.903Z,101221.92
2018-06-16T23:55:27.280Z,101219.28
2018-06-16T23:57:55.686Z,101217.08
